sensor_id;sensor_type;location;lat;lon;timestamp;temperature;humidity
1786;DHT22;890;48.158;11.540;2023-05-10T00:01:56;15.10;99.90
1786;DHT22;890;48.158;11.540;2023-05-10T00:04:22;15.20;99.90
1786;DHT22;890;48.158;11.540;2023-05-10T00:06:47;15.20;99.90
1786;DHT22;890;48.158;11.540;2023-05-10T00:09:13;15.10;99.90
1786;DHT22;890;48.158;11.540;2023-05-10T00:11:39;15.10;99.90
1786;DHT22;890;48.158;11.540;2023-05-10T00:14:04;15.20;99.90
1786;DHT22;890;48.158;11.540;2023-05-10T00:16:30;15.30;99.90
1786;DHT22;890;48.158;11.540;2023-05-10T00:18:56;15.50;99.90
1786;DHT22;890;48.158;11.540;2023-05-10T00:21:21;15.80;99.90
1786;DHT22;890;48.158;11.540;2023-05-10T00:23:47;15.40;99.90
1786;DHT22;890;48.158;11.540;2023-05-10T00:26:12;15.50;99.90
1786;DHT22;890;48.158;11.540;2023-05-10T00:28:38;15.50;99.90
1786;DHT22;890;48.158;11.540;2023-05-10T00:31:03;15.50;99.90
1786;DHT22;890;48.158;11.540;2023-05-10T00:33:29;15.60;99.90
1786;DHT22;890;48.158;11.540;2023-05-10T00:35:55;15.50;99.90
1786;DHT22;890;48.158;11.540;2023-05-10T00:38:20;15.40;99.90
1786;DHT22;890;48.158;11.540;2023-05-10T00:40:46;15.30;99.90
1786;DHT22;890;48.158;11.540;2023-05-10T00:43:12;15.30;99.90
1786;DHT22;890;48.158;11.540;2023-05-10T00:45:40;15.20;99.90
1786;DHT22;890;48.158;11.540;2023-05-10T00:48:06;15.10;99.90
1786;DHT22;890;48.158;11.540;2023-05-10T00:50:32;15.10;99.90
1786;DHT22;890;48.158;11.540;2023-05-10T00:52:59;15.10;99.90
1786;DHT22;890;48.158;11.540;2023-05-10T00:55:26;15.10;99.90
1786;DHT22;890;48.158;11.540;2023-05-10T00:57:53;15.10;99.90
1786;DHT22;890;48.158;11.540;2023-05-10T01:00:19;15.10;99.90
1786;DHT22;890;48.158;11.540;2023-05-10T01:02:45;15.10;99.90
1786;DHT22;890;48.158;11.540;2023-05-10T01:05:11;15.10;99.90
1786;DHT22;890;48.158;11.540;2023-05-10T01:07:37;15.10;99.90
1786;DHT22;890;48.158;11.540;2023-05-10T01:10:04;15.10;99.90
1786;DHT22;890;48.158;11.540;2023-05-10T01:12:30;15.20;99.90
1786;DHT22;890;48.158;11.540;2023-05-10T01:14:56;15.30;99.90
1786;DHT22;890;48.158;11.540;2023-05-10T01:17:23;15.30;99.90
1786;DHT22;890;48.158;11.540;2023-05-10T01:19:49;15.30;99.90
1786;DHT22;890;48.158;11.540;2023-05-10T01:33:47;15.30;99.90
1786;DHT22;890;48.158;11.540;2023-05-10T01:36:31;15.20;99.90
1786;DHT22;890;48.158;11.540;2023-05-10T01:39:02;15.20;99.90
1786;DHT22;890;48.158;11.540;2023-05-10T01:41:48;15.10;99.90
1786;DHT22;890;48.158;11.540;2023-05-10T01:44:31;15.00;99.90
1786;DHT22;890;48.158;11.540;2023-05-10T01:47:10;13.90;99.90
1786;DHT22;890;48.158;11.540;2023-05-10T01:49:45;14.90;99.90
1786;DHT22;890;48.158;11.540;2023-05-10T01:52:15;15.00;99.90
1786;DHT22;890;48.158;11.540;2023-05-10T01:54:47;15.10;99.90
1786;DHT22;890;48.158;11.540;2023-05-10T01:57:15;15.10;99.90
1786;DHT22;890;48.158;11.540;2023-05-10T01:59:45;15.10;99.90
1786;DHT22;890;48.158;11.540;2023-05-10T02:02:12;15.10;99.90
1786;DHT22;890;48.158;11.540;2023-05-10T02:04:40;15.10;99.90
1786;DHT22;890;48.158;11.540;2023-05-10T02:07:06;15.10;99.90
1786;DHT22;890;48.158;11.540;2023-05-10T02:09:34;15.10;99.90
1786;DHT22;890;48.158;11.540;2023-05-10T02:12:02;15.20;99.90
1786;DHT22;890;48.158;11.540;2023-05-10T02:14:30;15.20;99.90
1786;DHT22;890;48.158;11.540;2023-05-10T02:16:58;15.20;99.90
1786;DHT22;890;48.158;11.540;2023-05-10T02:19:26;15.30;99.90
1786;DHT22;890;48.158;11.540;2023-05-10T02:21:54;15.40;99.90
1786;DHT22;890;48.158;11.540;2023-05-10T02:24:21;15.30;99.90
1786;DHT22;890;48.158;11.540;2023-05-10T02:26:49;15.30;99.90
1786;DHT22;890;48.158;11.540;2023-05-10T02:29:17;15.30;99.90
1786;DHT22;890;48.158;11.540;2023-05-10T02:31:44;15.30;99.90
1786;DHT22;890;48.158;11.540;2023-05-10T02:34:11;15.30;99.90
1786;DHT22;890;48.158;11.540;2023-05-10T02:36:38;15.30;99.90
1786;DHT22;890;48.158;11.540;2023-05-10T02:39:05;15.30;99.90
1786;DHT22;890;48.158;11.540;2023-05-10T02:41:35;15.40;99.90
1786;DHT22;890;48.158;11.540;2023-05-10T02:44:02;15.30;99.90
1786;DHT22;890;48.158;11.540;2023-05-10T02:46:29;15.30;99.90
1786;DHT22;890;48.158;11.540;2023-05-10T02:48:54;15.30;99.90
1786;DHT22;890;48.158;11.540;2023-05-10T02:51:24;15.30;99.90
1786;DHT22;890;48.158;11.540;2023-05-10T02:53:51;15.20;99.90
1786;DHT22;890;48.158;11.540;2023-05-10T02:56:28;15.20;99.90
1786;DHT22;890;48.158;11.540;2023-05-10T02:58:56;15.10;99.90
1786;DHT22;890;48.158;11.540;2023-05-10T03:01:22;15.20;99.90
1786;DHT22;890;48.158;11.540;2023-05-10T03:03:48;15.20;99.90
1786;DHT22;890;48.158;11.540;2023-05-10T03:06:13;15.30;99.90
1786;DHT22;890;48.158;11.540;2023-05-10T03:08:39;15.20;99.90
1786;DHT22;890;48.158;11.540;2023-05-10T03:16:45;15.00;99.90
1786;DHT22;890;48.158;11.540;2023-05-10T03:19:24;15.00;99.90
1786;DHT22;890;48.158;11.540;2023-05-10T03:21:53;15.00;99.90
1786;DHT22;890;48.158;11.540;2023-05-10T03:24:21;15.00;99.90
1786;DHT22;890;48.158;11.540;2023-05-10T03:26:49;14.90;99.90
1786;DHT22;890;48.158;11.540;2023-05-10T03:29:15;14.80;99.90
1786;DHT22;890;48.158;11.540;2023-05-10T03:31:41;14.80;99.90
1786;DHT22;890;48.158;11.540;2023-05-10T03:34:07;14.70;99.90
1786;DHT22;890;48.158;11.540;2023-05-10T03:36:32;14.60;99.90
1786;DHT22;890;48.158;11.540;2023-05-10T03:38:58;14.50;99.90
1786;DHT22;890;48.158;11.540;2023-05-10T03:41:24;14.60;99.90
1786;DHT22;890;48.158;11.540;2023-05-10T03:43:50;14.60;99.90
1786;DHT22;890;48.158;11.540;2023-05-10T03:46:16;14.60;99.90
1786;DHT22;890;48.158;11.540;2023-05-10T03:48:42;14.60;99.90
1786;DHT22;890;48.158;11.540;2023-05-10T03:51:07;14.60;99.90
1786;DHT22;890;48.158;11.540;2023-05-10T03:53:33;14.70;99.90
1786;DHT22;890;48.158;11.540;2023-05-10T03:55:59;14.70;99.90
1786;DHT22;890;48.158;11.540;2023-05-10T03:58:24;14.70;99.90
1786;DHT22;890;48.158;11.540;2023-05-10T04:00:51;14.80;99.90
1786;DHT22;890;48.158;11.540;2023-05-10T04:03:16;14.80;99.90
1786;DHT22;890;48.158;11.540;2023-05-10T04:05:42;14.60;99.90
1786;DHT22;890;48.158;11.540;2023-05-10T04:08:08;14.70;99.90
1786;DHT22;890;48.158;11.540;2023-05-10T04:10:34;14.60;99.90
1786;DHT22;890;48.158;11.540;2023-05-10T04:12:59;14.60;99.90
1786;DHT22;890;48.158;11.540;2023-05-10T04:15:25;14.50;99.90
1786;DHT22;890;48.158;11.540;2023-05-10T04:17:51;14.50;99.90
1786;DHT22;890;48.158;11.540;2023-05-10T04:20:16;14.50;99.90
1786;DHT22;890;48.158;11.540;2023-05-10T04:22:42;14.40;99.90
1786;DHT22;890;48.158;11.540;2023-05-10T04:25:09;14.40;99.90
1786;DHT22;890;48.158;11.540;2023-05-10T04:27:35;14.30;99.90
1786;DHT22;890;48.158;11.540;2023-05-10T04:30:00;14.30;99.90
1786;DHT22;890;48.158;11.540;2023-05-10T04:32:26;14.30;99.90
1786;DHT22;890;48.158;11.540;2023-05-10T04:34:52;14.40;99.90
1786;DHT22;890;48.158;11.540;2023-05-10T04:37:18;14.50;99.90
1786;DHT22;890;48.158;11.540;2023-05-10T04:39:44;14.50;99.90
1786;DHT22;890;48.158;11.540;2023-05-10T04:42:09;14.50;99.90
1786;DHT22;890;48.158;11.540;2023-05-10T04:44:35;14.50;99.90
1786;DHT22;890;48.158;11.540;2023-05-10T04:47:01;14.50;99.90
1786;DHT22;890;48.158;11.540;2023-05-10T04:49:28;14.50;99.90
1786;DHT22;890;48.158;11.540;2023-05-10T04:51:55;14.40;99.90
1786;DHT22;890;48.158;11.540;2023-05-10T04:54:20;14.40;99.90
1786;DHT22;890;48.158;11.540;2023-05-10T04:56:46;14.30;99.90
1786;DHT22;890;48.158;11.540;2023-05-10T04:59:11;14.30;99.90
1786;DHT22;890;48.158;11.540;2023-05-10T05:01:37;14.20;99.90
1786;DHT22;890;48.158;11.540;2023-05-10T05:04:02;14.20;99.90
1786;DHT22;890;48.158;11.540;2023-05-10T05:06:28;13.90;99.90
1786;DHT22;890;48.158;11.540;2023-05-10T05:08:54;13.90;99.90
1786;DHT22;890;48.158;11.540;2023-05-10T05:11:19;13.80;99.90
1786;DHT22;890;48.158;11.540;2023-05-10T05:13:46;13.80;99.90
1786;DHT22;890;48.158;11.540;2023-05-10T05:16:12;13.70;99.90
1786;DHT22;890;48.158;11.540;2023-05-10T05:18:37;13.60;99.90
1786;DHT22;890;48.158;11.540;2023-05-10T05:21:03;13.60;99.90
1786;DHT22;890;48.158;11.540;2023-05-10T05:23:38;13.70;99.90
1786;DHT22;890;48.158;11.540;2023-05-10T05:26:03;13.70;99.90
1786;DHT22;890;48.158;11.540;2023-05-10T05:28:29;13.70;99.90
1786;DHT22;890;48.158;11.540;2023-05-10T05:30:58;13.60;99.90
1786;DHT22;890;48.158;11.540;2023-05-10T05:33:23;13.50;99.90
1786;DHT22;890;48.158;11.540;2023-05-10T05:35:49;13.40;99.90
1786;DHT22;890;48.158;11.540;2023-05-10T05:38:16;13.30;99.90
1786;DHT22;890;48.158;11.540;2023-05-10T05:40:42;13.20;99.90
1786;DHT22;890;48.158;11.540;2023-05-10T05:43:08;13.10;99.90
1786;DHT22;890;48.158;11.540;2023-05-10T05:45:33;13.10;99.90
1786;DHT22;890;48.158;11.540;2023-05-10T05:47:59;13.10;99.90
1786;DHT22;890;48.158;11.540;2023-05-10T05:50:25;13.20;99.90
1786;DHT22;890;48.158;11.540;2023-05-10T05:52:50;13.20;99.90
1786;DHT22;890;48.158;11.540;2023-05-10T05:55:16;13.30;99.90
1786;DHT22;890;48.158;11.540;2023-05-10T05:57:42;13.30;99.90
1786;DHT22;890;48.158;11.540;2023-05-10T06:00:08;13.50;99.90
1786;DHT22;890;48.158;11.540;2023-05-10T06:02:33;13.60;99.90
1786;DHT22;890;48.158;11.540;2023-05-10T06:04:59;13.70;99.90
1786;DHT22;890;48.158;11.540;2023-05-10T06:07:24;13.80;99.90
1786;DHT22;890;48.158;11.540;2023-05-10T06:09:51;13.90;99.90
1786;DHT22;890;48.158;11.540;2023-05-10T06:12:16;14.00;99.90
1786;DHT22;890;48.158;11.540;2023-05-10T06:14:42;14.00;99.90
1786;DHT22;890;48.158;11.540;2023-05-10T06:17:07;14.00;99.90
1786;DHT22;890;48.158;11.540;2023-05-10T06:19:33;14.10;99.90
1786;DHT22;890;48.158;11.540;2023-05-10T06:21:58;14.20;99.90
1786;DHT22;890;48.158;11.540;2023-05-10T06:24:24;14.10;99.90
1786;DHT22;890;48.158;11.540;2023-05-10T06:26:49;14.20;99.90
1786;DHT22;890;48.158;11.540;2023-05-10T06:29:15;14.20;99.90
1786;DHT22;890;48.158;11.540;2023-05-10T06:31:41;14.20;99.90
1786;DHT22;890;48.158;11.540;2023-05-10T06:34:07;14.30;99.90
1786;DHT22;890;48.158;11.540;2023-05-10T06:36:33;14.30;99.90
1786;DHT22;890;48.158;11.540;2023-05-10T06:38:59;14.30;99.90
1786;DHT22;890;48.158;11.540;2023-05-10T06:41:24;14.30;99.90
1786;DHT22;890;48.158;11.540;2023-05-10T06:43:50;14.30;99.90
1786;DHT22;890;48.158;11.540;2023-05-10T06:46:16;14.40;99.90
1786;DHT22;890;48.158;11.540;2023-05-10T06:48:41;14.40;99.90
1786;DHT22;890;48.158;11.540;2023-05-10T06:51:07;14.40;99.90
1786;DHT22;890;48.158;11.540;2023-05-10T06:53:32;14.40;99.90
1786;DHT22;890;48.158;11.540;2023-05-10T06:55:58;14.50;99.90
1786;DHT22;890;48.158;11.540;2023-05-10T06:58:24;14.50;99.90
1786;DHT22;890;48.158;11.540;2023-05-10T07:00:49;14.40;99.90
1786;DHT22;890;48.158;11.540;2023-05-10T07:03:15;14.50;99.90
1786;DHT22;890;48.158;11.540;2023-05-10T07:05:41;14.50;99.90
1786;DHT22;890;48.158;11.540;2023-05-10T07:08:06;14.50;99.90
1786;DHT22;890;48.158;11.540;2023-05-10T07:10:32;14.50;99.90
1786;DHT22;890;48.158;11.540;2023-05-10T07:12:58;14.50;99.90
1786;DHT22;890;48.158;11.540;2023-05-10T07:15:24;14.50;99.90
1786;DHT22;890;48.158;11.540;2023-05-10T07:17:49;14.60;99.90
1786;DHT22;890;48.158;11.540;2023-05-10T07:20:15;14.60;99.90
1786;DHT22;890;48.158;11.540;2023-05-10T07:22:40;14.80;99.90
1786;DHT22;890;48.158;11.540;2023-05-10T07:25:06;15.00;99.90
1786;DHT22;890;48.158;11.540;2023-05-10T07:27:32;15.20;99.90
1786;DHT22;890;48.158;11.540;2023-05-10T07:29:57;15.40;99.90
1786;DHT22;890;48.158;11.540;2023-05-10T07:32:23;15.50;99.90
1786;DHT22;890;48.158;11.540;2023-05-10T07:34:49;15.60;99.90
1786;DHT22;890;48.158;11.540;2023-05-10T07:37:15;15.50;99.90
1786;DHT22;890;48.158;11.540;2023-05-10T07:39:40;15.40;99.90
1786;DHT22;890;48.158;11.540;2023-05-10T07:42:06;15.50;99.90
1786;DHT22;890;48.158;11.540;2023-05-10T07:44:31;15.70;99.90
1786;DHT22;890;48.158;11.540;2023-05-10T07:46:57;15.70;99.90
1786;DHT22;890;48.158;11.540;2023-05-10T07:49:22;15.90;99.90
1786;DHT22;890;48.158;11.540;2023-05-10T07:51:51;16.00;99.90
1786;DHT22;890;48.158;11.540;2023-05-10T07:54:16;16.10;99.90
1786;DHT22;890;48.158;11.540;2023-05-10T07:56:42;16.20;99.90
1786;DHT22;890;48.158;11.540;2023-05-10T07:59:17;16.30;99.90
1786;DHT22;890;48.158;11.540;2023-05-10T08:01:43;16.40;99.90
1786;DHT22;890;48.158;11.540;2023-05-10T08:04:08;16.60;99.90
1786;DHT22;890;48.158;11.540;2023-05-10T08:06:34;16.60;99.90
1786;DHT22;890;48.158;11.540;2023-05-10T08:09:00;16.70;99.90
1786;DHT22;890;48.158;11.540;2023-05-10T08:11:26;16.70;99.90
1786;DHT22;890;48.158;11.540;2023-05-10T08:13:53;16.80;99.90
1786;DHT22;890;48.158;11.540;2023-05-10T08:16:19;16.70;99.90
1786;DHT22;890;48.158;11.540;2023-05-10T08:18:46;16.70;99.30
1786;DHT22;890;48.158;11.540;2023-05-10T08:21:12;16.80;99.40
1786;DHT22;890;48.158;11.540;2023-05-10T08:23:38;16.90;99.20
1786;DHT22;890;48.158;11.540;2023-05-10T08:26:04;17.00;98.80
1786;DHT22;890;48.158;11.540;2023-05-10T08:28:30;16.80;97.50
1786;DHT22;890;48.158;11.540;2023-05-10T08:30:56;16.60;96.70
1786;DHT22;890;48.158;11.540;2023-05-10T08:33:21;16.50;96.30
1786;DHT22;890;48.158;11.540;2023-05-10T08:35:47;16.30;95.80
1786;DHT22;890;48.158;11.540;2023-05-10T08:38:13;16.20;95.70
1786;DHT22;890;48.158;11.540;2023-05-10T08:40:41;16.00;95.50
1786;DHT22;890;48.158;11.540;2023-05-10T08:43:12;15.90;95.40
1786;DHT22;890;48.158;11.540;2023-05-10T08:45:41;15.90;95.10
1786;DHT22;890;48.158;11.540;2023-05-10T08:48:09;16.00;95.00
1786;DHT22;890;48.158;11.540;2023-05-10T08:50:36;16.00;94.80
1786;DHT22;890;48.158;11.540;2023-05-10T08:53:06;16.20;95.30
1786;DHT22;890;48.158;11.540;2023-05-10T08:55:35;16.20;94.90
1786;DHT22;890;48.158;11.540;2023-05-10T08:58:03;16.00;94.70
1786;DHT22;890;48.158;11.540;2023-05-10T09:00:29;16.00;94.60
1786;DHT22;890;48.158;11.540;2023-05-10T09:02:56;16.10;94.70
1786;DHT22;890;48.158;11.540;2023-05-10T09:05:22;16.10;94.20
1786;DHT22;890;48.158;11.540;2023-05-10T09:07:48;16.00;94.10
1786;DHT22;890;48.158;11.540;2023-05-10T09:10:14;16.10;94.30
1786;DHT22;890;48.158;11.540;2023-05-10T09:12:40;16.30;94.40
1786;DHT22;890;48.158;11.540;2023-05-10T09:15:07;16.50;94.40
1786;DHT22;890;48.158;11.540;2023-05-10T09:17:34;16.70;94.80
1786;DHT22;890;48.158;11.540;2023-05-10T09:20:00;16.80;94.00
1786;DHT22;890;48.158;11.540;2023-05-10T09:22:27;16.90;93.30
1786;DHT22;890;48.158;11.540;2023-05-10T09:25:14;16.90;92.50
1786;DHT22;890;48.158;11.540;2023-05-10T09:27:43;16.70;91.60
1786;DHT22;890;48.158;11.540;2023-05-10T09:30:10;16.70;91.40
1786;DHT22;890;48.158;11.540;2023-05-10T09:32:42;16.80;90.90
1786;DHT22;890;48.158;11.540;2023-05-10T09:35:15;16.90;91.10
1786;DHT22;890;48.158;11.540;2023-05-10T09:37:46;17.00;91.70
1786;DHT22;890;48.158;11.540;2023-05-10T09:40:18;17.30;92.40
1786;DHT22;890;48.158;11.540;2023-05-10T09:43:12;17.40;91.70
1786;DHT22;890;48.158;11.540;2023-05-10T09:45:41;17.30;90.70
1786;DHT22;890;48.158;11.540;2023-05-10T09:48:06;17.30;90.30
1786;DHT22;890;48.158;11.540;2023-05-10T09:50:32;17.30;90.00
1786;DHT22;890;48.158;11.540;2023-05-10T09:53:01;17.70;93.80
1786;DHT22;890;48.158;11.540;2023-05-10T09:55:45;18.40;96.80
1786;DHT22;890;48.158;11.540;2023-05-10T09:58:12;18.70;92.60
1786;DHT22;890;48.158;11.540;2023-05-10T10:00:43;18.60;90.50
1786;DHT22;890;48.158;11.540;2023-05-10T10:03:19;18.50;86.30
1786;DHT22;890;48.158;11.540;2023-05-10T10:05:45;18.40;84.50
1786;DHT22;890;48.158;11.540;2023-05-10T10:08:12;18.40;83.20
1786;DHT22;890;48.158;11.540;2023-05-10T10:10:38;18.30;83.10
1786;DHT22;890;48.158;11.540;2023-05-10T10:13:06;18.40;82.80
1786;DHT22;890;48.158;11.540;2023-05-10T10:15:33;18.50;83.90
1786;DHT22;890;48.158;11.540;2023-05-10T10:17:59;18.40;84.30
1786;DHT22;890;48.158;11.540;2023-05-10T10:20:26;18.30;83.00
1786;DHT22;890;48.158;11.540;2023-05-10T10:22:52;18.10;81.70
1786;DHT22;890;48.158;11.540;2023-05-10T10:25:19;18.00;80.80
1786;DHT22;890;48.158;11.540;2023-05-10T10:30:43;17.80;80.80
1786;DHT22;890;48.158;11.540;2023-05-10T10:36:07;18.40;81.30
1786;DHT22;890;48.158;11.540;2023-05-10T10:41:30;18.90;80.50
1786;DHT22;890;48.158;11.540;2023-05-10T10:49:49;18.70;75.70
1786;DHT22;890;48.158;11.540;2023-05-10T10:52:27;18.50;75.80
1786;DHT22;890;48.158;11.540;2023-05-10T10:54:59;18.20;75.40
1786;DHT22;890;48.158;11.540;2023-05-10T10:57:27;18.10;75.80
1786;DHT22;890;48.158;11.540;2023-05-10T11:00:25;18.10;75.90
1786;DHT22;890;48.158;11.540;2023-05-10T11:07:57;17.80;76.70
1786;DHT22;890;48.158;11.540;2023-05-10T11:10:24;17.80;77.50
1786;DHT22;890;48.158;11.540;2023-05-10T11:12:58;17.80;76.60
1786;DHT22;890;48.158;11.540;2023-05-10T11:15:35;17.80;76.00
1786;DHT22;890;48.158;11.540;2023-05-10T11:18:20;17.60;74.90
1786;DHT22;890;48.158;11.540;2023-05-10T11:20:56;17.50;75.20
1786;DHT22;890;48.158;11.540;2023-05-10T11:23:23;17.50;74.60
1786;DHT22;890;48.158;11.540;2023-05-10T11:25:49;17.40;74.50
1786;DHT22;890;48.158;11.540;2023-05-10T11:28:17;17.30;74.60
1786;DHT22;890;48.158;11.540;2023-05-10T11:30:44;17.20;75.00
1786;DHT22;890;48.158;11.540;2023-05-10T11:33:15;17.00;75.40
1786;DHT22;890;48.158;11.540;2023-05-10T11:35:42;16.80;75.80
1786;DHT22;890;48.158;11.540;2023-05-10T11:38:09;16.60;76.80
1786;DHT22;890;48.158;11.540;2023-05-10T11:40:36;16.40;77.40
1786;DHT22;890;48.158;11.540;2023-05-10T11:43:03;16.20;78.00
1786;DHT22;890;48.158;11.540;2023-05-10T11:45:32;16.10;78.60
1786;DHT22;890;48.158;11.540;2023-05-10T11:47:58;15.90;79.40
1786;DHT22;890;48.158;11.540;2023-05-10T11:50:24;15.70;79.90
1786;DHT22;890;48.158;11.540;2023-05-10T11:52:56;15.50;80.60
1786;DHT22;890;48.158;11.540;2023-05-10T11:55:22;15.40;81.30
1786;DHT22;890;48.158;11.540;2023-05-10T11:57:53;15.40;81.80
1786;DHT22;890;48.158;11.540;2023-05-10T12:00:19;15.30;81.50
1786;DHT22;890;48.158;11.540;2023-05-10T12:02:45;15.20;81.70
1786;DHT22;890;48.158;11.540;2023-05-10T12:05:11;15.10;81.90
1786;DHT22;890;48.158;11.540;2023-05-10T12:07:38;15.00;83.00
1786;DHT22;890;48.158;11.540;2023-05-10T12:10:10;15.00;84.10
1786;DHT22;890;48.158;11.540;2023-05-10T12:12:39;14.90;84.90
1786;DHT22;890;48.158;11.540;2023-05-10T12:15:05;15.00;85.80
1786;DHT22;890;48.158;11.540;2023-05-10T12:17:37;14.80;86.50
1786;DHT22;890;48.158;11.540;2023-05-10T12:22:54;14.50;88.50
1786;DHT22;890;48.158;11.540;2023-05-10T12:25:23;14.50;88.70
1786;DHT22;890;48.158;11.540;2023-05-10T12:27:55;14.40;89.50
1786;DHT22;890;48.158;11.540;2023-05-10T12:30:29;14.50;90.20
1786;DHT22;890;48.158;11.540;2023-05-10T12:33:00;14.50;90.30
1786;DHT22;890;48.158;11.540;2023-05-10T12:35:27;14.50;90.60
1786;DHT22;890;48.158;11.540;2023-05-10T12:37:55;14.60;90.50
1786;DHT22;890;48.158;11.540;2023-05-10T12:40:20;14.50;90.50
1786;DHT22;890;48.158;11.540;2023-05-10T12:42:46;14.50;90.90
1786;DHT22;890;48.158;11.540;2023-05-10T12:45:11;14.60;91.30
1786;DHT22;890;48.158;11.540;2023-05-10T12:47:37;14.80;91.80
1786;DHT22;890;48.158;11.540;2023-05-10T12:50:04;14.90;91.90
1786;DHT22;890;48.158;11.540;2023-05-10T12:52:31;14.90;91.80
1786;DHT22;890;48.158;11.540;2023-05-10T12:55:00;14.90;92.10
1786;DHT22;890;48.158;11.540;2023-05-10T12:57:25;14.80;92.20
1786;DHT22;890;48.158;11.540;2023-05-10T12:59:51;14.90;92.50
1786;DHT22;890;48.158;11.540;2023-05-10T13:02:17;14.90;92.40
1786;DHT22;890;48.158;11.540;2023-05-10T13:04:44;14.90;92.50
1786;DHT22;890;48.158;11.540;2023-05-10T13:07:10;15.00;92.80
1786;DHT22;890;48.158;11.540;2023-05-10T13:09:36;15.10;92.50
1786;DHT22;890;48.158;11.540;2023-05-10T13:12:02;15.10;92.60
1786;DHT22;890;48.158;11.540;2023-05-10T13:14:29;15.10;92.60
1786;DHT22;890;48.158;11.540;2023-05-10T13:16:55;15.30;92.60
1786;DHT22;890;48.158;11.540;2023-05-10T13:19:20;15.50;92.90
1786;DHT22;890;48.158;11.540;2023-05-10T13:21:46;15.60;92.40
1786;DHT22;890;48.158;11.540;2023-05-10T13:24:12;15.50;92.20
1786;DHT22;890;48.158;11.540;2023-05-10T13:26:39;15.50;92.00
1786;DHT22;890;48.158;11.540;2023-05-10T13:29:06;15.40;91.90
1786;DHT22;890;48.158;11.540;2023-05-10T13:31:31;15.40;92.30
1786;DHT22;890;48.158;11.540;2023-05-10T13:33:57;15.30;92.80
1786;DHT22;890;48.158;11.540;2023-05-10T13:36:23;15.40;93.10
1786;DHT22;890;48.158;11.540;2023-05-10T13:38:48;15.60;93.20
1786;DHT22;890;48.158;11.540;2023-05-10T13:41:14;15.50;92.90
1786;DHT22;890;48.158;11.540;2023-05-10T13:43:40;15.40;92.60
1786;DHT22;890;48.158;11.540;2023-05-10T13:46:05;15.30;93.00
1786;DHT22;890;48.158;11.540;2023-05-10T13:48:31;15.40;93.50
1786;DHT22;890;48.158;11.540;2023-05-10T13:50:56;15.50;93.60
1786;DHT22;890;48.158;11.540;2023-05-10T13:53:22;15.60;93.70
1786;DHT22;890;48.158;11.540;2023-05-10T13:55:48;15.70;93.50
1786;DHT22;890;48.158;11.540;2023-05-10T13:58:13;15.70;93.70
1786;DHT22;890;48.158;11.540;2023-05-10T14:00:39;15.60;92.90
1786;DHT22;890;48.158;11.540;2023-05-10T14:03:05;15.40;93.10
1786;DHT22;890;48.158;11.540;2023-05-10T14:05:32;15.30;93.30
1786;DHT22;890;48.158;11.540;2023-05-10T14:07:58;15.30;93.20
1786;DHT22;890;48.158;11.540;2023-05-10T14:10:23;15.30;93.40
1786;DHT22;890;48.158;11.540;2023-05-10T14:12:49;15.40;93.70
1786;DHT22;890;48.158;11.540;2023-05-10T14:15:15;15.50;93.70
1786;DHT22;890;48.158;11.540;2023-05-10T14:17:41;15.50;93.90
1786;DHT22;890;48.158;11.540;2023-05-10T14:20:07;15.50;93.70
1786;DHT22;890;48.158;11.540;2023-05-10T14:22:33;15.50;94.00
1786;DHT22;890;48.158;11.540;2023-05-10T14:24:59;15.70;94.40
1786;DHT22;890;48.158;11.540;2023-05-10T14:27:25;15.90;94.20
1786;DHT22;890;48.158;11.540;2023-05-10T14:29:50;15.60;93.50
1786;DHT22;890;48.158;11.540;2023-05-10T14:32:16;15.40;93.90
1786;DHT22;890;48.158;11.540;2023-05-10T14:34:42;15.40;93.70
1786;DHT22;890;48.158;11.540;2023-05-10T14:37:10;15.10;93.80
1786;DHT22;890;48.158;11.540;2023-05-10T14:39:36;15.00;94.20
1786;DHT22;890;48.158;11.540;2023-05-10T14:42:02;14.90;94.30
1786;DHT22;890;48.158;11.540;2023-05-10T14:44:28;14.80;94.60
1786;DHT22;890;48.158;11.540;2023-05-10T14:46:53;14.80;95.00
1786;DHT22;890;48.158;11.540;2023-05-10T14:49:19;14.80;95.10
1786;DHT22;890;48.158;11.540;2023-05-10T14:51:48;14.70;95.00
1786;DHT22;890;48.158;11.540;2023-05-10T14:54:13;14.60;95.00
1786;DHT22;890;48.158;11.540;2023-05-10T14:56:39;14.40;95.40
1786;DHT22;890;48.158;11.540;2023-05-10T14:59:06;14.40;95.60
1786;DHT22;890;48.158;11.540;2023-05-10T15:01:32;14.40;95.80
1786;DHT22;890;48.158;11.540;2023-05-10T15:03:58;14.40;96.10
1786;DHT22;890;48.158;11.540;2023-05-10T15:06:31;14.40;96.20
1786;DHT22;890;48.158;11.540;2023-05-10T15:08:57;14.20;96.10
1786;DHT22;890;48.158;11.540;2023-05-10T15:11:22;14.20;96.20
1786;DHT22;890;48.158;11.540;2023-05-10T15:13:48;14.10;96.40
1786;DHT22;890;48.158;11.540;2023-05-10T15:16:13;14.10;96.70
1786;DHT22;890;48.158;11.540;2023-05-10T15:18:39;14.10;96.80
1786;DHT22;890;48.158;11.540;2023-05-10T15:21:04;14.00;97.00
1786;DHT22;890;48.158;11.540;2023-05-10T15:23:30;14.00;97.20
1786;DHT22;890;48.158;11.540;2023-05-10T15:25:55;14.00;97.50
1786;DHT22;890;48.158;11.540;2023-05-10T15:28:21;13.90;97.50
1786;DHT22;890;48.158;11.540;2023-05-10T15:30:47;13.90;97.90
1786;DHT22;890;48.158;11.540;2023-05-10T15:33:13;13.90;98.20
1786;DHT22;890;48.158;11.540;2023-05-10T15:35:39;13.90;98.20
1786;DHT22;890;48.158;11.540;2023-05-10T15:38:05;13.90;98.20
1786;DHT22;890;48.158;11.540;2023-05-10T15:40:31;13.80;98.30
1786;DHT22;890;48.158;11.540;2023-05-10T15:42:56;13.80;98.80
1786;DHT22;890;48.158;11.540;2023-05-10T15:45:22;13.80;98.90
1786;DHT22;890;48.158;11.540;2023-05-10T15:47:48;13.80;99.20
1786;DHT22;890;48.158;11.540;2023-05-10T15:50:14;13.70;99.10
1786;DHT22;890;48.158;11.540;2023-05-10T15:52:40;13.70;99.40
1786;DHT22;890;48.158;11.540;2023-05-10T15:55:07;13.60;99.80
1786;DHT22;890;48.158;11.540;2023-05-10T15:57:43;13.70;99.90
1786;DHT22;890;48.158;11.540;2023-05-10T16:00:10;13.70;99.90
1786;DHT22;890;48.158;11.540;2023-05-10T16:02:35;13.60;99.90
1786;DHT22;890;48.158;11.540;2023-05-10T16:05:02;13.60;99.90
1786;DHT22;890;48.158;11.540;2023-05-10T16:07:27;13.60;99.90
1786;DHT22;890;48.158;11.540;2023-05-10T16:09:53;13.60;99.90
1786;DHT22;890;48.158;11.540;2023-05-10T16:12:19;13.50;99.90
1786;DHT22;890;48.158;11.540;2023-05-10T16:14:45;13.50;99.90
1786;DHT22;890;48.158;11.540;2023-05-10T16:17:10;13.50;99.90
1786;DHT22;890;48.158;11.540;2023-05-10T16:19:36;13.50;99.90
1786;DHT22;890;48.158;11.540;2023-05-10T16:22:02;13.50;99.90
1786;DHT22;890;48.158;11.540;2023-05-10T16:24:27;13.50;99.90
1786;DHT22;890;48.158;11.540;2023-05-10T16:26:53;13.60;99.90
1786;DHT22;890;48.158;11.540;2023-05-10T16:29:19;13.60;99.90
1786;DHT22;890;48.158;11.540;2023-05-10T16:31:44;13.50;99.90
1786;DHT22;890;48.158;11.540;2023-05-10T16:34:10;13.50;99.90
1786;DHT22;890;48.158;11.540;2023-05-10T16:36:36;13.50;99.90
1786;DHT22;890;48.158;11.540;2023-05-10T16:39:01;13.60;99.90
1786;DHT22;890;48.158;11.540;2023-05-10T16:41:28;13.60;99.90